createdAt,value
2023-02-02T00:01:32.418Z,14.10
2023-02-02T00:03:59.956Z,8.53
2023-02-02T00:06:29.912Z,12.43
2023-02-02T00:08:59.544Z,13.07
2023-02-02T00:11:27.165Z,17.17
2023-02-02T00:13:54.339Z,7.40
2023-02-02T00:16:27.359Z,12.20
2023-02-02T00:19:09.419Z,6.40
2023-02-02T00:21:38.149Z,9.67
2023-02-02T00:24:07.949Z,9.40
2023-02-02T00:26:36.139Z,13.00
2023-02-02T00:29:04.992Z,9.80
2023-02-02T00:31:32.144Z,13.13
2023-02-02T00:33:59.855Z,9.70
2023-02-02T00:36:26.937Z,10.10
2023-02-02T00:38:53.964Z,8.67
2023-02-02T00:41:20.920Z,17.47
2023-02-02T00:44:10.683Z,15.63
2023-02-02T00:46:40.826Z,10.33
2023-02-02T00:49:08.868Z,8.10
2023-02-02T00:51:37.114Z,4.10
2023-02-02T00:54:05.090Z,16.63
2023-02-02T00:56:32.208Z,7.63
2023-02-02T00:58:59.243Z,8.13
2023-02-02T01:01:26.251Z,9.43
2023-02-02T01:03:53.245Z,9.77
2023-02-02T01:06:20.332Z,10.80
2023-02-02T01:08:47.507Z,4.40
2023-02-02T01:11:14.530Z,7.47
2023-02-02T01:13:41.743Z,11.67
2023-02-02T01:16:09.282Z,7.20
2023-02-02T01:18:36.251Z,12.60
2023-02-02T01:21:09.631Z,13.63
2023-02-02T01:23:38.150Z,12.03
2023-02-02T01:26:09.187Z,10.53
2023-02-02T01:28:37.683Z,12.03
2023-02-02T01:31:14.710Z,12.53
2023-02-02T01:33:43.669Z,11.47
2023-02-02T01:36:15.296Z,12.40
2023-02-02T01:38:42.729Z,8.70
2023-02-02T01:41:15.002Z,9.17
2023-02-02T01:43:41.852Z,10.40
2023-02-02T01:46:23.258Z,9.63
2023-02-02T01:48:58.271Z,23.97
2023-02-02T01:51:44.031Z,10.93
2023-02-02T01:54:24.290Z,20.33
2023-02-02T01:56:59.011Z,18.30
2023-02-02T01:59:27.598Z,11.97
2023-02-02T02:01:55.788Z,18.47
2023-02-02T02:04:24.821Z,12.57
2023-02-02T02:06:53.567Z,7.27
2023-02-02T02:09:21.131Z,16.93
2023-02-02T02:11:48.165Z,13.30
2023-02-02T02:14:35.136Z,10.67
2023-02-02T02:17:34.916Z,11.93
2023-02-02T02:21:14.033Z,9.67
2023-02-02T02:24:48.106Z,19.87
2023-02-02T02:27:46.033Z,8.60
2023-02-02T02:30:31.292Z,13.97
2023-02-02T02:33:28.139Z,13.00
2023-02-02T02:36:14.613Z,13.43
2023-02-02T02:39:14.430Z,19.47
2023-02-02T02:41:49.905Z,7.97
2023-02-02T02:44:19.976Z,8.70
2023-02-02T02:46:48.284Z,9.67
2023-02-02T02:49:15.215Z,9.37
2023-02-02T02:51:54.327Z,12.63
2023-02-02T02:54:31.549Z,16.63
2023-02-02T02:57:12.434Z,18.37
2023-02-02T03:00:29.127Z,15.43
2023-02-02T03:03:13.000Z,12.97
2023-02-02T03:06:44.063Z,12.07
2023-02-02T03:09:15.825Z,4.50
2023-02-02T03:11:43.140Z,17.37
2023-02-02T03:14:10.269Z,10.47
2023-02-02T03:16:37.622Z,14.70
2023-02-02T03:19:06.647Z,7.80
2023-02-02T03:21:34.196Z,8.33
2023-02-02T03:24:01.574Z,16.53
2023-02-02T03:26:29.018Z,13.53
2023-02-02T03:28:59.985Z,15.77
2023-02-02T03:31:28.153Z,11.00
2023-02-02T03:33:56.011Z,19.00
2023-02-02T03:36:23.574Z,11.30
2023-02-02T03:38:50.468Z,9.03
2023-02-02T03:41:17.374Z,12.03
2023-02-02T03:43:44.281Z,14.13
2023-02-02T03:46:11.366Z,14.27
2023-02-02T03:48:39.162Z,19.20
2023-02-02T03:51:15.543Z,14.67
2023-02-02T03:53:44.378Z,17.13
2023-02-02T03:56:11.482Z,9.17
2023-02-02T03:58:38.386Z,19.40
2023-02-02T04:01:11.953Z,15.37
2023-02-02T04:03:39.168Z,15.93
2023-02-02T04:06:06.287Z,14.20
2023-02-02T04:08:34.065Z,16.33
2023-02-02T04:11:01.366Z,22.30
2023-02-02T04:13:28.368Z,13.27
2023-02-02T04:16:00.947Z,14.60
2023-02-02T04:18:29.289Z,15.60
2023-02-02T04:21:01.379Z,7.60
2023-02-02T04:23:29.353Z,12.87
2023-02-02T04:25:57.052Z,15.37
2023-02-02T04:28:24.701Z,12.63
2023-02-02T04:30:54.346Z,12.83
2023-02-02T04:33:23.187Z,7.90
2023-02-02T04:35:50.301Z,7.00
2023-02-02T04:38:17.395Z,14.63
2023-02-02T04:40:46.973Z,14.30
2023-02-02T04:43:14.397Z,18.20
2023-02-02T04:45:42.342Z,11.33
2023-02-02T04:48:09.732Z,9.00
2023-02-02T04:50:36.813Z,21.53
2023-02-02T04:53:05.023Z,11.00
2023-02-02T04:55:36.377Z,11.10
2023-02-02T04:58:03.520Z,11.03
2023-02-02T05:00:30.501Z,11.03
2023-02-02T05:02:57.400Z,8.00
2023-02-02T05:05:24.553Z,13.63
2023-02-02T05:07:51.613Z,11.17
2023-02-02T05:10:18.538Z,12.40
2023-02-02T05:12:45.567Z,12.23
2023-02-02T05:15:12.444Z,12.77
2023-02-02T05:17:39.460Z,12.87
2023-02-02T05:20:06.901Z,14.27
2023-02-02T05:22:35.153Z,14.27
2023-02-02T05:25:02.357Z,10.87
2023-02-02T05:27:29.271Z,10.17
2023-02-02T05:29:56.191Z,11.67
2023-02-02T05:32:23.250Z,14.40
2023-02-02T05:34:50.165Z,10.30
2023-02-02T05:37:17.295Z,18.63
2023-02-02T05:39:44.227Z,9.73
2023-02-02T05:42:11.207Z,9.57
2023-02-02T05:44:38.130Z,14.63
2023-02-02T05:47:05.118Z,10.93
2023-02-02T05:49:32.081Z,14.30
2023-02-02T05:51:59.599Z,12.40
2023-02-02T05:54:26.524Z,16.67
2023-02-02T05:56:55.752Z,13.30
2023-02-02T05:59:23.385Z,13.93
2023-02-02T06:01:50.451Z,15.43
2023-02-02T06:04:17.638Z,24.70
2023-02-02T06:06:44.819Z,9.13
2023-02-02T06:09:11.813Z,10.43
2023-02-02T06:11:39.554Z,12.57
2023-02-02T06:14:07.613Z,6.50
2023-02-02T06:16:34.775Z,12.40
2023-02-02T06:19:01.742Z,14.93
2023-02-02T06:21:31.169Z,12.30
2023-02-02T06:23:59.432Z,10.63
2023-02-02T06:26:27.058Z,12.43
2023-02-02T06:28:54.647Z,11.53
2023-02-02T06:31:22.336Z,11.60
2023-02-02T06:33:55.447Z,11.10
2023-02-02T06:36:24.071Z,8.77
2023-02-02T06:38:53.465Z,12.70
2023-02-02T06:41:21.180Z,4.90
2023-02-02T06:43:49.515Z,3.13
2023-02-02T06:46:17.109Z,10.97
2023-02-02T06:48:44.109Z,10.13
2023-02-02T06:51:11.082Z,5.43
2023-02-02T06:53:37.981Z,4.10
2023-02-02T06:56:07.461Z,8.63
2023-02-02T06:58:34.829Z,6.37
2023-02-02T07:01:08.409Z,4.10
2023-02-02T07:03:35.749Z,4.63
2023-02-02T07:06:18.885Z,2.83
2023-02-02T07:08:59.556Z,3.23
2023-02-02T07:11:31.151Z,13.13
2023-02-02T07:13:58.535Z,4.27
2023-02-02T07:16:25.619Z,3.27
2023-02-02T07:18:52.900Z,4.60
2023-02-02T07:21:29.325Z,4.53
2023-02-02T07:23:56.300Z,2.80
2023-02-02T07:26:23.522Z,7.50
2023-02-02T07:28:51.981Z,5.23
2023-02-02T07:31:25.945Z,4.40
2023-02-02T07:33:54.192Z,8.57
2023-02-02T07:36:23.753Z,5.30
2023-02-02T07:38:57.412Z,5.07
2023-02-02T07:41:24.661Z,8.57
2023-02-02T07:43:52.061Z,6.17
2023-02-02T07:46:20.133Z,5.93
2023-02-02T07:48:47.261Z,3.80
2023-02-02T07:51:17.520Z,4.30
2023-02-02T07:53:50.751Z,5.50
2023-02-02T07:56:24.561Z,3.60
2023-02-02T07:58:56.565Z,7.50
2023-02-02T08:01:26.407Z,4.73
2023-02-02T08:03:55.881Z,10.43
2023-02-02T08:06:29.833Z,5.33
2023-02-02T08:08:57.192Z,4.50
2023-02-02T08:11:26.312Z,4.47
2023-02-02T08:13:56.982Z,7.50
2023-02-02T08:16:25.427Z,3.20
2023-02-02T08:18:52.606Z,2.93
2023-02-02T08:21:20.405Z,1.90
2023-02-02T08:23:48.014Z,5.13
2023-02-02T08:26:16.894Z,4.27
2023-02-02T08:28:46.324Z,3.93
2023-02-02T08:31:21.605Z,4.50
2023-02-02T08:33:48.933Z,4.07
2023-02-02T08:36:19.327Z,5.60
2023-02-02T08:38:46.938Z,7.97
2023-02-02T08:41:20.675Z,3.73
2023-02-02T08:43:47.617Z,5.43
2023-02-02T08:46:17.221Z,6.37
2023-02-02T08:48:44.905Z,7.47
2023-02-02T08:51:15.202Z,7.20
2023-02-02T08:53:43.064Z,4.40
2023-02-02T08:56:13.553Z,8.63
2023-02-02T08:58:54.040Z,5.83
2023-02-02T09:01:32.809Z,4.47
2023-02-02T09:04:06.418Z,4.63
2023-02-02T09:06:38.978Z,3.37
2023-02-02T09:09:09.449Z,4.40
2023-02-02T09:11:37.644Z,6.83
2023-02-02T09:14:06.382Z,6.63
2023-02-02T09:16:35.271Z,8.47
2023-02-02T09:19:02.895Z,2.37
2023-02-02T09:21:29.948Z,2.23
2023-02-02T09:23:57.194Z,4.37
2023-02-02T09:26:27.806Z,8.47
2023-02-02T09:29:05.618Z,4.47
2023-02-02T09:31:37.634Z,3.63
2023-02-02T09:34:08.283Z,4.97
2023-02-02T09:36:35.725Z,5.20
2023-02-02T09:39:03.590Z,4.53
2023-02-02T09:41:39.461Z,5.83
2023-02-02T09:44:37.472Z,8.50
2023-02-02T09:47:22.747Z,6.33
2023-02-02T09:50:15.501Z,5.60
2023-02-02T09:52:58.546Z,3.67
2023-02-02T09:55:37.056Z,4.03
2023-02-02T09:58:34.327Z,11.00
2023-02-02T10:01:18.382Z,6.37
2023-02-02T10:04:16.268Z,3.90
2023-02-02T10:06:46.321Z,5.90
2023-02-02T10:09:30.705Z,9.73
2023-02-02T10:12:30.057Z,3.77
2023-02-02T10:15:24.467Z,3.03
2023-02-02T10:18:27.208Z,3.20
2023-02-02T10:21:06.898Z,5.80
2023-02-02T10:23:44.528Z,3.20
2023-02-02T10:26:21.752Z,10.70
2023-02-02T10:29:08.966Z,5.63
2023-02-02T10:31:43.091Z,5.40
2023-02-02T10:34:45.561Z,3.03
2023-02-02T10:37:28.247Z,8.03
2023-02-02T10:40:14.890Z,5.53
2023-02-02T10:43:38.363Z,6.17
2023-02-02T10:46:12.758Z,7.53
2023-02-02T10:48:47.631Z,11.30
2023-02-02T10:51:29.333Z,4.40
2023-02-02T10:54:00.261Z,7.90
2023-02-02T10:56:38.719Z,4.27
2023-02-02T10:59:22.386Z,9.20
2023-02-02T11:01:49.802Z,3.30
2023-02-02T11:04:36.271Z,6.00
2023-02-02T11:07:03.207Z,3.43
2023-02-02T11:09:39.802Z,7.63
2023-02-02T11:12:23.243Z,5.27
2023-02-02T11:14:59.843Z,3.90
2023-02-02T11:17:26.795Z,7.27
2023-02-02T11:19:57.013Z,4.73
2023-02-02T11:22:38.672Z,10.23
2023-02-02T11:25:25.226Z,2.20
2023-02-02T11:27:52.106Z,3.90
2023-02-02T11:30:30.106Z,6.77
2023-02-02T11:32:57.529Z,5.10
2023-02-02T11:35:27.134Z,6.50
2023-02-02T11:38:17.771Z,8.23
2023-02-02T11:40:52.520Z,5.67
2023-02-02T11:43:41.206Z,6.40
2023-02-02T11:46:29.011Z,5.33
2023-02-02T11:49:03.911Z,5.20
2023-02-02T11:51:31.665Z,4.30
2023-02-02T11:54:16.309Z,7.10
2023-02-02T11:56:49.083Z,2.63
2023-02-02T11:59:42.922Z,5.67
2023-02-02T12:02:12.890Z,13.07
2023-02-02T12:04:41.016Z,48.43
2023-02-02T12:07:22.164Z,194.17
2023-02-02T12:09:50.937Z,107.97
2023-02-02T12:12:40.779Z,6.77
2023-02-02T12:15:20.013Z,6.40
2023-02-02T12:17:48.825Z,5.77
2023-02-02T12:20:16.843Z,9.07
2023-02-02T12:23:15.360Z,2.67
2023-02-02T12:26:12.635Z,19.90
2023-02-02T12:28:59.002Z,4.97
2023-02-02T12:31:59.927Z,7.53
2023-02-02T12:34:47.848Z,7.80
2023-02-02T12:37:47.717Z,38.83
2023-02-02T12:41:12.596Z,28.67
2023-02-02T12:43:47.609Z,36.70
2023-02-02T12:46:50.901Z,32.70
2023-02-02T12:49:54.584Z,29.57
2023-02-02T12:52:55.668Z,49.20
2023-02-02T12:55:59.906Z,33.37
2023-02-02T12:58:34.530Z,87.03
2023-02-02T13:01:13.880Z,49.33
2023-02-02T13:04:45.443Z,15.93
2023-02-02T13:07:37.181Z,10.43
2023-02-02T13:10:35.254Z,6.93
2023-02-02T13:13:14.209Z,6.27
2023-02-02T13:16:15.296Z,6.97
2023-02-02T13:19:02.468Z,7.53
2023-02-02T13:21:31.507Z,9.83
2023-02-02T13:24:04.300Z,5.87
2023-02-02T13:26:38.891Z,30.63
2023-02-02T13:29:24.878Z,18.00
2023-02-02T13:32:06.657Z,8.90
2023-02-02T13:34:51.473Z,9.00
2023-02-02T13:37:29.526Z,7.33
2023-02-02T13:40:03.383Z,4.60
2023-02-02T13:42:47.479Z,6.63
2023-02-02T13:45:35.876Z,5.43
2023-02-02T13:48:21.172Z,6.77
2023-02-02T13:51:12.580Z,11.33
2023-02-02T13:53:51.512Z,6.60
2023-02-02T13:56:53.373Z,11.20
2023-02-02T13:59:29.347Z,10.53
2023-02-02T14:01:58.659Z,17.37
2023-02-02T14:04:30.390Z,9.10
2023-02-02T14:07:07.293Z,5.63
2023-02-02T14:09:37.594Z,6.97
2023-02-02T14:12:12.464Z,7.20
2023-02-02T14:14:45.979Z,5.53
2023-02-02T14:17:19.336Z,10.40
2023-02-02T14:19:57.220Z,8.23
2023-02-02T14:22:54.553Z,7.53
2023-02-02T14:25:33.704Z,7.73
2023-02-02T14:28:10.511Z,6.40
2023-02-02T14:30:39.523Z,8.80
2023-02-02T14:33:38.785Z,7.60
2023-02-02T14:36:13.286Z,8.00
2023-02-02T14:38:58.245Z,13.23
2023-02-02T14:42:10.451Z,4.30
2023-02-02T14:44:38.534Z,5.93
2023-02-02T14:47:45.252Z,4.70
2023-02-02T14:50:39.232Z,6.30
2023-02-02T14:53:33.648Z,6.83
2023-02-02T14:56:10.739Z,7.73
2023-02-02T14:58:45.950Z,10.10
2023-02-02T15:01:22.796Z,4.40
2023-02-02T15:04:21.450Z,6.00
2023-02-02T15:06:52.552Z,8.90
2023-02-02T15:09:23.423Z,5.60
2023-02-02T15:12:01.010Z,10.03
2023-02-02T15:15:01.491Z,8.50
2023-02-02T15:17:40.685Z,6.80
2023-02-02T15:20:24.765Z,5.63
2023-02-02T15:23:24.520Z,12.37
2023-02-02T15:26:17.712Z,9.00
2023-02-02T15:28:56.157Z,4.57
2023-02-02T15:31:40.412Z,13.07
2023-02-02T15:34:41.312Z,13.77
2023-02-02T15:37:15.921Z,18.40
2023-02-02T15:39:49.107Z,13.90
2023-02-02T15:42:53.264Z,13.20
2023-02-02T15:45:49.906Z,15.23
2023-02-02T15:48:29.801Z,12.63
2023-02-02T15:51:01.026Z,14.57
2023-02-02T15:53:51.618Z,18.83
2023-02-02T15:56:24.583Z,21.20
2023-02-02T15:58:54.799Z,25.27
2023-02-02T16:01:24.777Z,27.13
2023-02-02T16:04:26.036Z,26.73
2023-02-02T16:06:55.048Z,16.40
2023-02-02T16:09:31.174Z,14.80
2023-02-02T16:11:58.179Z,15.80
2023-02-02T16:14:25.176Z,12.50
2023-02-02T16:16:52.174Z,12.40
2023-02-02T16:19:27.406Z,5.50
2023-02-02T16:22:02.106Z,12.10
2023-02-02T16:24:34.252Z,15.10
2023-02-02T16:27:06.053Z,7.60
2023-02-02T16:29:34.251Z,11.45
2023-02-02T16:32:01.712Z,12.70
2023-02-02T16:34:40.813Z,8.10
2023-02-02T16:37:37.390Z,7.20
2023-02-02T16:40:26.372Z,7.30
2023-02-02T16:43:06.378Z,10.77
2023-02-02T16:45:42.976Z,7.50
2023-02-02T16:48:37.929Z,6.87
2023-02-02T16:51:15.849Z,6.33
2023-02-02T16:54:14.040Z,7.93
2023-02-02T16:57:00.290Z,6.90
2023-02-02T16:59:37.855Z,7.57
2023-02-02T17:02:30.598Z,9.30
2023-02-02T17:05:28.066Z,10.07
2023-02-02T17:08:04.439Z,8.00
2023-02-02T17:10:37.514Z,14.27
2023-02-02T17:13:30.192Z,93.20
2023-02-02T17:15:58.927Z,23.73
2023-02-02T17:18:26.496Z,10.07
2023-02-02T17:20:57.863Z,16.50
2023-02-02T17:23:29.098Z,7.40
2023-02-02T17:25:56.702Z,9.67
2023-02-02T17:28:26.241Z,9.30
2023-02-02T17:31:00.952Z,7.63
2023-02-02T17:33:28.152Z,9.80
2023-02-02T17:35:56.530Z,15.37
2023-02-02T17:38:25.126Z,8.60
2023-02-02T17:40:53.041Z,10.80
2023-02-02T17:43:19.952Z,11.00
2023-02-02T17:45:47.286Z,10.80
2023-02-02T17:48:14.657Z,9.00
2023-02-02T17:50:43.062Z,9.87
2023-02-02T17:53:13.324Z,8.00
2023-02-02T17:55:43.120Z,10.17
2023-02-02T17:58:13.198Z,12.77
2023-02-02T18:00:41.889Z,10.07
2023-02-02T18:03:23.776Z,10.40
2023-02-02T18:05:51.348Z,12.50
2023-02-02T18:08:18.382Z,10.03
2023-02-02T18:10:45.396Z,111.67
2023-02-02T18:13:19.369Z,30.90
2023-02-02T18:15:47.005Z,14.83
2023-02-02T18:18:13.925Z,13.90
2023-02-02T18:20:49.524Z,13.97
2023-02-02T18:23:18.805Z,13.47
2023-02-02T18:25:45.895Z,10.73
2023-02-02T18:28:17.226Z,9.30
2023-02-02T18:30:46.796Z,10.70
2023-02-02T18:33:16.862Z,19.83
2023-02-02T18:35:47.923Z,14.00
2023-02-02T18:38:15.157Z,11.63
2023-02-02T18:40:42.242Z,11.10
2023-02-02T18:43:09.579Z,12.60
2023-02-02T18:45:36.906Z,11.30
2023-02-02T18:48:04.273Z,10.37
2023-02-02T18:50:31.282Z,12.80
2023-02-02T18:52:58.615Z,11.67
2023-02-02T18:55:26.754Z,13.43
2023-02-02T18:57:53.955Z,16.73
2023-02-02T19:00:22.055Z,17.20
2023-02-02T19:02:49.636Z,14.17
2023-02-02T19:05:35.629Z,14.20
2023-02-02T19:08:03.979Z,13.50
2023-02-02T19:10:31.347Z,17.20
2023-02-02T19:13:20.253Z,15.70
2023-02-02T19:15:49.571Z,18.90
2023-02-02T19:18:23.312Z,18.10
2023-02-02T19:20:52.481Z,17.47
2023-02-02T19:23:25.525Z,18.70
2023-02-02T19:25:55.910Z,20.57
2023-02-02T19:28:30.685Z,23.70
2023-02-02T19:31:01.153Z,21.13
2023-02-02T19:33:40.126Z,23.07
2023-02-02T19:36:30.735Z,27.53
2023-02-02T19:39:12.286Z,23.40
2023-02-02T19:41:42.334Z,25.13
2023-02-02T19:44:19.913Z,22.67
2023-02-02T19:46:50.787Z,21.63
2023-02-02T19:49:20.528Z,23.53
2023-02-02T19:51:54.152Z,27.60
2023-02-02T19:54:41.169Z,27.07
2023-02-02T19:57:13.920Z,26.50
2023-02-02T19:59:43.503Z,31.67
2023-02-02T20:02:29.655Z,35.07
2023-02-02T20:05:11.463Z,42.57
2023-02-02T20:07:39.322Z,39.97
2023-02-02T20:10:22.350Z,50.50
2023-02-02T20:12:51.084Z,54.10
2023-02-02T20:15:33.750Z,47.57
2023-02-02T20:18:05.545Z,47.97
2023-02-02T20:20:42.984Z,38.10
2023-02-02T20:23:39.678Z,49.83
2023-02-02T20:26:29.296Z,36.87
2023-02-02T20:29:00.379Z,31.00
2023-02-02T20:31:39.438Z,27.10
2023-02-02T20:34:28.093Z,37.77
2023-02-02T20:37:14.019Z,23.27
2023-02-02T20:39:47.615Z,31.90
2023-02-02T20:42:15.390Z,22.57
2023-02-02T20:44:42.314Z,23.97
2023-02-02T20:47:09.464Z,26.57
2023-02-02T20:49:37.714Z,24.40
2023-02-02T20:52:10.692Z,31.27
2023-02-02T20:54:39.080Z,29.57
2023-02-02T20:57:06.812Z,29.90
2023-02-02T20:59:33.709Z,28.83
2023-02-02T21:02:00.746Z,25.43
2023-02-02T21:04:28.096Z,27.93
2023-02-02T21:06:55.413Z,28.90
2023-02-02T21:09:22.771Z,27.93
2023-02-02T21:11:49.629Z,29.37
2023-02-02T21:14:16.730Z,30.30
2023-02-02T21:16:43.679Z,33.50
2023-02-02T21:19:10.723Z,34.03
2023-02-02T21:21:37.671Z,31.60
2023-02-02T21:24:05.119Z,29.63
2023-02-02T21:26:31.979Z,29.83
2023-02-02T21:28:59.243Z,36.10
2023-02-02T21:31:27.315Z,29.93
2023-02-02T21:33:54.331Z,37.23
2023-02-02T21:36:45.186Z,37.10
2023-02-02T21:39:35.820Z,33.83
2023-02-02T21:42:08.801Z,35.57
2023-02-02T21:44:45.613Z,37.17
2023-02-02T21:47:35.816Z,38.40
2023-02-02T21:50:15.901Z,42.93
2023-02-02T21:52:43.100Z,27.47
2023-02-02T21:55:33.911Z,36.60
2023-02-02T21:58:27.686Z,27.17
2023-02-02T22:00:59.267Z,32.13
2023-02-02T22:03:36.922Z,33.70
2023-02-02T22:06:28.457Z,33.13
2023-02-02T22:09:12.782Z,37.73
2023-02-02T22:11:51.699Z,33.33
2023-02-02T22:14:36.881Z,39.67
2023-02-02T22:17:24.236Z,35.20
2023-02-02T22:20:17.365Z,24.23
2023-02-02T22:22:50.439Z,38.03
2023-02-02T22:25:17.199Z,36.00
2023-02-02T22:27:51.774Z,41.93
2023-02-02T22:30:41.083Z,38.47
2023-02-02T22:33:11.006Z,39.67
2023-02-02T22:35:38.377Z,39.57
2023-02-02T22:38:06.056Z,40.23
2023-02-02T22:40:33.067Z,41.20
2023-02-02T22:43:02.813Z,42.93
2023-02-02T22:45:29.772Z,40.03
2023-02-02T22:47:56.637Z,27.30
2023-02-02T22:50:27.458Z,39.40
2023-02-02T22:52:54.955Z,43.23
2023-02-02T22:55:22.335Z,42.00
2023-02-02T22:57:49.403Z,37.90
2023-02-02T23:00:29.204Z,41.70
2023-02-02T23:02:56.681Z,39.10
2023-02-02T23:05:25.410Z,40.37
2023-02-02T23:07:53.473Z,31.40
2023-02-02T23:10:24.997Z,39.53
2023-02-02T23:12:54.885Z,38.57
2023-02-02T23:15:21.919Z,41.20
2023-02-02T23:17:48.891Z,40.63
2023-02-02T23:20:16.233Z,30.63
2023-02-02T23:22:43.435Z,30.40
2023-02-02T23:25:11.963Z,36.07
2023-02-02T23:27:39.381Z,35.20
2023-02-02T23:30:08.852Z,35.43
2023-02-02T23:32:36.033Z,33.37
2023-02-02T23:35:03.581Z,30.27
2023-02-02T23:37:30.518Z,33.10
2023-02-02T23:39:57.484Z,28.33
2023-02-02T23:42:25.581Z,36.30
2023-02-02T23:44:53.034Z,31.73
2023-02-02T23:47:20.210Z,23.70
2023-02-02T23:49:47.296Z,19.40
2023-02-02T23:52:14.879Z,27.10
2023-02-02T23:54:42.096Z,36.37
2023-02-02T23:57:09.227Z,30.70
2023-02-02T23:59:36.368Z,30.10
